Carrot River, Canada
Current Conditions -  °F | °C
As of 10:00 AM on Saturday 20 Dec 2014 (Local Time) from CYBU Reporting Station
Overcast Overcast  
Wind Chill:   Ceiling: 700
Heat Index: 19°   Visibility: 9mi
Dew Point: 19°   Wind: 12mph
Humidity: 100%   Direction: 120°ESE
Pressure: 29.83"   Gusts: NA
Location:  53.28°N, 103.58°W
Report Text: CYBU 201600Z AUTO 12010KT 9SM OVC007 M07/M07 A2983 RMK SLP127
Loading
Personal Weather Stations






























Interactive Weather Map New forecast layout! Learn more

10-Day Weather Forecast

Advertisements
Track Severe Weather on mobile